createdAt,value
2022-11-16T00:00:20.996Z,0.00
2022-11-16T00:01:21.034Z,0.00
2022-11-16T00:02:21.047Z,0.00
2022-11-16T00:03:21.063Z,0.00
2022-11-16T00:04:21.657Z,0.00
2022-11-16T00:05:25.518Z,0.00
2022-11-16T00:06:21.964Z,0.00
2022-11-16T00:07:21.019Z,0.00
2022-11-16T00:08:20.961Z,0.00
2022-11-16T00:09:20.933Z,0.00
2022-11-16T00:10:20.922Z,0.00
2022-11-16T00:11:20.997Z,0.00
2022-11-16T00:12:20.930Z,0.00
2022-11-16T00:13:20.920Z,0.00
2022-11-16T00:14:20.916Z,0.00
2022-11-16T00:15:21.874Z,0.00
2022-11-16T00:16:20.897Z,0.00
2022-11-16T00:17:20.870Z,0.00
2022-11-16T00:18:20.884Z,0.00
2022-11-16T00:19:20.866Z,0.00
2022-11-16T00:20:20.875Z,0.00
2022-11-16T00:21:20.848Z,0.00
2022-11-16T00:22:20.844Z,0.00
2022-11-16T00:23:20.826Z,0.00
2022-11-16T00:24:20.814Z,0.00
2022-11-16T00:25:22.453Z,0.00
2022-11-16T00:26:20.813Z,0.00
2022-11-16T00:27:21.461Z,0.00
2022-11-16T00:28:20.805Z,0.00
2022-11-16T00:29:20.934Z,0.00
2022-11-16T00:30:20.838Z,0.00
2022-11-16T00:31:20.777Z,0.00
2022-11-16T00:32:20.772Z,0.00
2022-11-16T00:33:20.769Z,0.00
2022-11-16T00:34:20.812Z,0.00
2022-11-16T00:35:20.764Z,0.00
2022-11-16T00:36:20.726Z,0.00
2022-11-16T00:37:20.727Z,0.00
2022-11-16T00:38:20.723Z,0.00
2022-11-16T00:39:20.774Z,0.00
2022-11-16T00:40:20.705Z,0.00
2022-11-16T00:41:20.702Z,0.00
2022-11-16T00:42:20.694Z,0.00
2022-11-16T00:43:20.674Z,0.00
2022-11-16T00:44:22.951Z,0.00
2022-11-16T00:45:20.670Z,0.00
2022-11-16T00:46:20.656Z,0.00
2022-11-16T00:47:20.653Z,0.00
2022-11-16T00:48:20.949Z,0.00
2022-11-16T00:49:20.641Z,0.00
2022-11-16T00:50:20.658Z,0.00
2022-11-16T00:51:20.611Z,0.00
2022-11-16T00:52:20.624Z,0.00
2022-11-16T00:53:20.621Z,0.00
2022-11-16T00:54:22.387Z,0.00
2022-11-16T00:55:20.587Z,0.00
2022-11-16T00:56:20.598Z,0.00
2022-11-16T00:57:20.582Z,0.00
2022-11-16T00:58:20.561Z,0.00
2022-11-16T00:59:20.585Z,0.00
2022-11-16T01:00:20.551Z,0.00
2022-11-16T01:01:20.589Z,0.00
2022-11-16T01:02:20.561Z,0.00
2022-11-16T01:03:20.523Z,0.00
2022-11-16T01:04:20.983Z,0.00
2022-11-16T01:05:20.523Z,0.00
2022-11-16T01:06:20.533Z,0.00
2022-11-16T01:07:20.584Z,0.00
2022-11-16T01:08:20.489Z,0.00
2022-11-16T01:09:20.483Z,0.00
2022-11-16T01:10:20.512Z,0.00
2022-11-16T01:11:20.628Z,0.00
2022-11-16T01:12:20.462Z,0.00
2022-11-16T01:13:20.452Z,0.00
2022-11-16T01:14:20.460Z,0.00
2022-11-16T01:15:20.685Z,0.00
2022-11-16T01:16:20.452Z,0.00
2022-11-16T01:17:20.446Z,0.00
2022-11-16T01:18:20.422Z,0.00
2022-11-16T01:19:20.422Z,0.00
2022-11-16T01:20:20.449Z,0.00
2022-11-16T01:21:20.395Z,0.00
2022-11-16T01:22:20.429Z,0.00
2022-11-16T01:23:20.385Z,0.00
2022-11-16T01:24:20.458Z,0.00
2022-11-16T01:25:20.403Z,0.00
2022-11-16T01:26:20.361Z,0.00
2022-11-16T01:27:20.364Z,0.00
2022-11-16T01:28:20.346Z,0.00
2022-11-16T01:29:26.653Z,0.00
2022-11-16T01:30:20.349Z,0.00
2022-11-16T01:31:20.796Z,0.00
2022-11-16T01:32:20.412Z,0.00
2022-11-16T01:33:20.330Z,0.00
2022-11-16T01:34:20.309Z,0.00
2022-11-16T01:35:20.310Z,0.00
2022-11-16T01:36:20.738Z,0.00
2022-11-16T01:37:20.286Z,0.00
2022-11-16T01:38:20.312Z,0.00
2022-11-16T01:39:20.268Z,0.00
2022-11-16T01:40:20.280Z,0.00
2022-11-16T01:41:20.990Z,0.00
2022-11-16T01:42:20.251Z,0.00
2022-11-16T01:43:21.107Z,0.00
2022-11-16T01:44:21.088Z,0.00
2022-11-16T01:45:20.246Z,0.00
2022-11-16T01:46:20.583Z,0.00
2022-11-16T01:47:20.236Z,0.00
2022-11-16T01:48:20.302Z,0.00
2022-11-16T01:49:20.285Z,0.00
2022-11-16T01:50:20.205Z,0.00
2022-11-16T01:51:20.187Z,0.00
2022-11-16T01:52:20.212Z,0.00
2022-11-16T01:53:20.220Z,0.00
2022-11-16T01:54:20.197Z,0.00
2022-11-16T01:55:20.169Z,0.00
2022-11-16T01:56:20.140Z,0.00
2022-11-16T01:57:20.150Z,0.00
2022-11-16T01:58:20.147Z,0.00
2022-11-16T01:59:20.152Z,0.00
2022-11-16T02:00:20.119Z,0.00
2022-11-16T02:01:20.211Z,0.00
2022-11-16T02:02:20.122Z,0.00
2022-11-16T02:03:20.092Z,0.00
2022-11-16T02:04:20.115Z,0.00
2022-11-16T02:05:20.238Z,0.00
2022-11-16T02:06:20.073Z,0.00
2022-11-16T02:07:20.192Z,0.00
2022-11-16T02:08:20.070Z,0.00
2022-11-16T02:09:21.056Z,0.00
2022-11-16T02:10:20.080Z,0.00
2022-11-16T02:11:20.033Z,0.00
2022-11-16T02:12:20.114Z,0.00
2022-11-16T02:13:20.032Z,0.00
2022-11-16T02:14:21.222Z,0.00
2022-11-16T02:15:20.513Z,0.00
2022-11-16T02:16:20.011Z,0.00
2022-11-16T02:17:20.002Z,0.00
2022-11-16T02:18:19.976Z,0.00
2022-11-16T02:19:19.983Z,0.00
2022-11-16T02:20:19.996Z,0.00
2022-11-16T02:21:20.366Z,0.00
2022-11-16T02:22:19.961Z,0.00
2022-11-16T02:23:19.973Z,0.00
2022-11-16T02:24:19.947Z,0.00
2022-11-16T02:25:19.945Z,0.00
2022-11-16T02:26:19.976Z,0.00
2022-11-16T02:27:19.926Z,0.00
2022-11-16T02:28:19.907Z,0.00
2022-11-16T02:29:19.902Z,0.00
2022-11-16T02:30:19.918Z,0.00
2022-11-16T02:31:19.891Z,0.00
2022-11-16T02:32:21.272Z,0.00
2022-11-16T02:33:19.883Z,0.00
2022-11-16T02:34:19.859Z,0.00
2022-11-16T02:35:19.868Z,0.00
2022-11-16T02:36:20.412Z,0.00
2022-11-16T02:37:19.839Z,0.00
2022-11-16T02:38:19.845Z,0.00
2022-11-16T02:39:19.828Z,0.00
2022-11-16T02:40:19.830Z,0.00
2022-11-16T02:41:19.820Z,0.00
2022-11-16T02:42:20.461Z,0.00
2022-11-16T02:43:19.811Z,0.00
2022-11-16T02:44:19.794Z,0.00
2022-11-16T02:45:19.778Z,0.00
2022-11-16T02:46:19.784Z,0.00
2022-11-16T02:47:20.232Z,0.00
2022-11-16T02:48:19.756Z,0.00
2022-11-16T02:49:19.755Z,0.00
2022-11-16T02:50:19.762Z,0.00
2022-11-16T02:51:19.730Z,0.00
2022-11-16T02:52:19.740Z,0.00
2022-11-16T02:53:19.732Z,0.00
2022-11-16T02:54:19.734Z,0.00
2022-11-16T02:55:19.718Z,0.00
2022-11-16T02:56:19.696Z,0.00
2022-11-16T02:57:19.691Z,0.00
2022-11-16T02:58:20.401Z,0.00
2022-11-16T02:59:19.713Z,0.00
2022-11-16T03:00:19.682Z,0.00
2022-11-16T03:01:19.722Z,0.00
2022-11-16T03:02:19.655Z,0.00
2022-11-16T03:03:19.645Z,0.00
2022-11-16T03:04:19.725Z,0.00
2022-11-16T03:05:20.460Z,0.00
2022-11-16T03:06:19.632Z,0.00
2022-11-16T03:07:19.698Z,0.00
2022-11-16T03:08:19.614Z,0.00
2022-11-16T03:09:19.603Z,0.00
2022-11-16T03:10:20.256Z,0.00
2022-11-16T03:11:19.584Z,0.00
2022-11-16T03:12:19.595Z,0.00
2022-11-16T03:13:19.591Z,0.00
2022-11-16T03:14:19.588Z,0.00
2022-11-16T03:15:20.059Z,0.00
2022-11-16T03:16:19.552Z,0.00
2022-11-16T03:17:19.541Z,0.00
2022-11-16T03:18:19.554Z,0.00
2022-11-16T03:19:19.562Z,0.00
2022-11-16T03:20:19.543Z,0.00
2022-11-16T03:21:19.525Z,0.00
2022-11-16T03:22:19.902Z,0.00
2022-11-16T03:23:19.502Z,0.00
2022-11-16T03:24:19.508Z,0.00
2022-11-16T03:25:19.505Z,0.00
2022-11-16T03:26:19.724Z,0.00
2022-11-16T03:27:19.484Z,0.00
2022-11-16T03:28:19.465Z,0.00
2022-11-16T03:29:19.455Z,0.00
2022-11-16T03:30:23.378Z,0.00
2022-11-16T03:31:19.464Z,0.00
2022-11-16T03:32:19.457Z,0.00
2022-11-16T03:33:19.448Z,0.00
2022-11-16T03:34:19.433Z,0.00
2022-11-16T03:35:19.432Z,0.00
2022-11-16T03:36:19.411Z,0.00
2022-11-16T03:37:19.442Z,0.00
2022-11-16T03:38:19.407Z,0.00
2022-11-16T03:39:19.408Z,0.00
2022-11-16T03:40:19.407Z,0.00
2022-11-16T03:41:19.385Z,0.00
2022-11-16T03:42:19.374Z,0.00
2022-11-16T03:43:19.354Z,0.00
2022-11-16T03:44:19.793Z,0.00
2022-11-16T03:45:19.358Z,0.00
2022-11-16T03:46:19.419Z,0.00
2022-11-16T03:47:19.343Z,0.00
2022-11-16T03:48:19.344Z,0.00
2022-11-16T03:49:19.801Z,0.00
2022-11-16T03:50:19.312Z,0.00
2022-11-16T03:51:19.382Z,0.00
2022-11-16T03:52:20.657Z,0.00
2022-11-16T03:53:19.291Z,0.00
2022-11-16T03:54:19.297Z,0.00
2022-11-16T03:55:20.272Z,0.00
2022-11-16T03:56:19.289Z,0.00
2022-11-16T03:57:19.311Z,0.00
2022-11-16T03:58:19.259Z,0.00
2022-11-16T03:59:19.275Z,0.00
2022-11-16T04:00:19.252Z,0.00
2022-11-16T04:01:19.376Z,0.00
2022-11-16T04:02:20.399Z,0.00
2022-11-16T04:03:19.216Z,0.00
2022-11-16T04:04:19.211Z,0.00
2022-11-16T04:05:19.219Z,0.00
2022-11-16T04:06:19.216Z,0.00
2022-11-16T04:07:19.283Z,0.00
2022-11-16T04:08:19.190Z,0.00
2022-11-16T04:09:19.191Z,0.00
2022-11-16T04:10:21.520Z,0.00
2022-11-16T04:11:19.174Z,0.00
2022-11-16T04:12:19.166Z,0.00
2022-11-16T04:13:19.146Z,0.00
2022-11-16T04:14:19.486Z,0.00
2022-11-16T04:15:19.136Z,0.00
2022-11-16T04:16:19.123Z,0.00
2022-11-16T04:17:19.137Z,0.00
2022-11-16T04:18:19.140Z,0.00
2022-11-16T04:19:19.134Z,0.00
2022-11-16T04:20:19.114Z,0.00
2022-11-16T04:21:19.090Z,0.00
2022-11-16T04:22:19.081Z,0.00
2022-11-16T04:23:19.086Z,0.00
2022-11-16T04:24:19.276Z,0.00
2022-11-16T04:25:20.798Z,0.00
2022-11-16T04:26:19.098Z,0.00
2022-11-16T04:27:19.049Z,0.00
2022-11-16T04:28:19.047Z,0.00
2022-11-16T04:29:19.062Z,0.00
2022-11-16T04:30:19.520Z,0.00
2022-11-16T04:31:19.030Z,0.00
2022-11-16T04:32:25.703Z,0.00
2022-11-16T04:33:19.148Z,0.00
2022-11-16T04:34:19.835Z,0.00
2022-11-16T04:35:18.994Z,0.00
2022-11-16T04:36:20.993Z,0.00
2022-11-16T04:37:18.980Z,0.00
2022-11-16T04:38:19.000Z,0.00
2022-11-16T04:39:19.030Z,0.00
2022-11-16T04:40:18.969Z,0.00
2022-11-16T04:41:19.002Z,0.00
2022-11-16T04:42:19.189Z,0.00
2022-11-16T04:43:18.959Z,0.00
2022-11-16T04:44:18.939Z,0.00
2022-11-16T04:45:18.921Z,0.00
2022-11-16T04:46:18.942Z,0.00
2022-11-16T04:47:18.905Z,0.00
2022-11-16T04:48:18.895Z,0.00
2022-11-16T04:49:18.970Z,0.00
2022-11-16T04:50:19.652Z,0.00
2022-11-16T04:51:18.953Z,0.00
2022-11-16T04:52:18.890Z,0.00
2022-11-16T04:53:18.873Z,0.00
2022-11-16T04:54:18.859Z,0.00
2022-11-16T04:55:18.869Z,0.00
2022-11-16T04:56:18.860Z,0.00
2022-11-16T04:57:18.841Z,0.00
2022-11-16T04:58:18.857Z,0.00
2022-11-16T04:59:18.888Z,0.00
2022-11-16T05:00:18.819Z,0.00
2022-11-16T05:01:18.987Z,0.00
2022-11-16T05:02:18.811Z,0.00
2022-11-16T05:03:18.806Z,0.00
2022-11-16T05:04:18.802Z,0.00
2022-11-16T05:05:18.786Z,0.00
2022-11-16T05:06:19.142Z,0.00
2022-11-16T05:07:18.820Z,0.00
2022-11-16T05:08:18.760Z,0.00
2022-11-16T05:09:18.764Z,0.00
2022-11-16T05:10:18.764Z,0.00
2022-11-16T05:11:19.045Z,0.00
2022-11-16T05:12:18.740Z,0.00
2022-11-16T05:13:18.781Z,0.00
2022-11-16T05:14:18.721Z,0.00
2022-11-16T05:15:18.726Z,0.00
2022-11-16T05:16:18.738Z,0.00
2022-11-16T05:17:18.701Z,0.00
2022-11-16T05:18:19.451Z,0.00
2022-11-16T05:19:18.691Z,0.00
2022-11-16T05:20:18.681Z,0.00
2022-11-16T05:21:18.713Z,0.00
2022-11-16T05:22:18.701Z,0.00
2022-11-16T05:23:18.677Z,0.00
2022-11-16T05:24:18.673Z,0.00
2022-11-16T05:25:18.656Z,0.00
2022-11-16T05:26:18.640Z,0.00
2022-11-16T05:27:18.693Z,0.00
2022-11-16T05:28:19.362Z,0.00
2022-11-16T05:29:18.895Z,0.00
2022-11-16T05:30:18.642Z,0.00
2022-11-16T05:31:18.606Z,0.00
2022-11-16T05:32:18.636Z,0.00
2022-11-16T05:33:18.623Z,0.00
2022-11-16T05:34:23.537Z,0.00
2022-11-16T05:35:18.591Z,0.00
2022-11-16T05:36:18.593Z,0.00
2022-11-16T05:37:18.566Z,0.00
2022-11-16T05:38:18.599Z,0.00
2022-11-16T05:39:18.981Z,0.00
2022-11-16T05:40:18.550Z,0.00
2022-11-16T05:41:18.555Z,0.00
2022-11-16T05:42:18.594Z,0.00
2022-11-16T05:43:18.543Z,0.00
2022-11-16T05:44:18.531Z,0.00
2022-11-16T05:45:21.192Z,0.00
2022-11-16T05:46:18.532Z,0.00
2022-11-16T05:47:18.495Z,0.00
2022-11-16T05:48:18.494Z,0.00
2022-11-16T05:49:18.495Z,0.00
2022-11-16T05:50:18.479Z,0.00
2022-11-16T05:51:19.167Z,0.00
2022-11-16T05:52:18.477Z,0.00
2022-11-16T05:53:18.741Z,0.00
2022-11-16T05:54:18.488Z,0.00
2022-11-16T05:55:18.439Z,0.00
2022-11-16T05:56:18.449Z,0.00
2022-11-16T05:57:19.218Z,0.00
2022-11-16T05:58:20.325Z,0.00
2022-11-16T05:59:18.421Z,0.00
2022-11-16T06:00:18.412Z,0.00
2022-11-16T06:01:18.412Z,0.00
2022-11-16T06:02:18.395Z,0.00
2022-11-16T06:03:18.474Z,0.00
2022-11-16T06:04:23.253Z,0.00
2022-11-16T06:05:19.635Z,0.00
2022-11-16T06:06:18.433Z,0.00
2022-11-16T06:07:18.461Z,0.00
2022-11-16T06:08:18.386Z,0.00
2022-11-16T06:09:18.359Z,0.00
2022-11-16T06:10:18.398Z,0.00
2022-11-16T06:11:19.303Z,0.00
2022-11-16T06:12:18.352Z,0.00
2022-11-16T06:13:18.337Z,0.00
2022-11-16T06:14:18.803Z,0.00
2022-11-16T06:15:18.352Z,0.00
2022-11-16T06:16:18.699Z,0.00
2022-11-16T06:17:18.364Z,4.00
2022-11-16T06:18:18.346Z,4.00
2022-11-16T06:19:18.286Z,0.00
2022-11-16T06:20:18.284Z,4.00
2022-11-16T06:21:18.291Z,4.00
2022-11-16T06:22:18.271Z,4.00
2022-11-16T06:23:18.273Z,4.00
2022-11-16T06:24:18.259Z,8.00
2022-11-16T06:25:18.251Z,8.00
2022-11-16T06:26:18.247Z,8.00
2022-11-16T06:27:18.220Z,8.00
2022-11-16T06:28:18.227Z,12.00
2022-11-16T06:29:18.223Z,12.00
2022-11-16T06:30:18.597Z,12.00
2022-11-16T06:31:18.194Z,16.00
2022-11-16T06:32:18.497Z,20.00
2022-11-16T06:33:18.199Z,20.00
2022-11-16T06:34:18.171Z,20.00
2022-11-16T06:35:18.182Z,24.00
2022-11-16T06:36:18.193Z,20.00
2022-11-16T06:37:19.382Z,28.00
2022-11-16T06:38:18.158Z,28.00
2022-11-16T06:39:18.146Z,32.00
2022-11-16T06:40:18.161Z,36.00
2022-11-16T06:41:18.194Z,32.00
2022-11-16T06:42:18.141Z,32.00
2022-11-16T06:43:18.127Z,32.00
2022-11-16T06:44:18.114Z,36.00
2022-11-16T06:45:18.169Z,40.00
2022-11-16T06:46:18.095Z,48.00
2022-11-16T06:47:18.146Z,48.00
2022-11-16T06:48:18.394Z,52.00
2022-11-16T06:49:18.912Z,64.00
2022-11-16T06:50:18.090Z,68.00
2022-11-16T06:51:18.122Z,76.00
2022-11-16T06:52:18.055Z,92.00
2022-11-16T06:53:39.052Z,124.00
2022-11-16T06:54:18.752Z,140.00
2022-11-16T06:55:18.032Z,140.00
2022-11-16T06:56:18.027Z,148.00
2022-11-16T06:57:18.037Z,168.00
2022-11-16T06:58:18.027Z,176.00
2022-11-16T06:59:18.008Z,172.00
2022-11-16T07:00:18.006Z,184.00
2022-11-16T07:01:18.123Z,200.00
2022-11-16T07:02:18.008Z,212.00
2022-11-16T07:03:17.990Z,216.00
2022-11-16T07:04:18.022Z,240.00
2022-11-16T07:05:18.424Z,280.00
2022-11-16T07:06:17.962Z,304.00
2022-11-16T07:07:18.108Z,304.00
2022-11-16T07:08:17.943Z,284.00
2022-11-16T07:09:18.989Z,264.00
2022-11-16T07:10:17.941Z,256.00
2022-11-16T07:11:19.004Z,276.00
2022-11-16T07:12:17.930Z,268.00
2022-11-16T07:13:17.908Z,264.00
2022-11-16T07:14:17.903Z,280.00
2022-11-16T07:15:17.919Z,292.00
2022-11-16T07:16:17.921Z,292.00
2022-11-16T07:17:17.882Z,284.00
2022-11-16T07:18:18.755Z,284.00
2022-11-16T07:19:17.882Z,300.00
2022-11-16T07:20:18.068Z,356.00
2022-11-16T07:21:17.867Z,344.00
2022-11-16T07:22:17.860Z,352.00
2022-11-16T07:23:17.837Z,348.00
2022-11-16T07:24:17.852Z,384.00
2022-11-16T07:25:17.839Z,448.00
2022-11-16T07:26:18.215Z,448.00
2022-11-16T07:27:17.821Z,432.00
2022-11-16T07:28:17.802Z,420.00
2022-11-16T07:29:17.801Z,432.00
2022-11-16T07:30:17.793Z,452.00
2022-11-16T07:31:17.822Z,440.00
2022-11-16T07:32:17.767Z,452.00
2022-11-16T07:33:17.770Z,468.00
2022-11-16T07:34:17.801Z,472.00
2022-11-16T07:35:17.756Z,456.00
2022-11-16T07:36:17.874Z,460.00
2022-11-16T07:37:17.731Z,460.00
2022-11-16T07:38:18.723Z,448.00
2022-11-16T07:39:17.738Z,428.00
2022-11-16T07:40:17.755Z,420.00
2022-11-16T07:41:17.722Z,424.00
2022-11-16T07:42:17.719Z,452.00
2022-11-16T07:43:17.695Z,464.00
2022-11-16T07:44:17.745Z,488.00
2022-11-16T07:45:18.159Z,520.00
2022-11-16T07:46:48.115Z,540.00
2022-11-16T07:47:18.687Z,568.00
2022-11-16T07:48:17.679Z,604.00
2022-11-16T07:49:17.714Z,628.00
2022-11-16T07:50:18.201Z,676.00
2022-11-16T07:51:17.626Z,712.00
2022-11-16T07:52:17.667Z,716.00
2022-11-16T07:53:17.620Z,724.00
2022-11-16T07:54:17.664Z,752.00
2022-11-16T07:55:19.995Z,756.00
2022-11-16T07:56:17.594Z,816.00
2022-11-16T07:57:17.600Z,844.00
2022-11-16T07:58:17.592Z,848.00
2022-11-16T07:59:17.580Z,908.00
2022-11-16T08:00:17.582Z,968.00
2022-11-16T08:01:17.603Z,1044.00
2022-11-16T08:02:17.559Z,1144.00
2022-11-16T08:03:23.409Z,1212.00
2022-11-16T08:04:18.561Z,1232.00
2022-11-16T08:05:17.534Z,1232.00
2022-11-16T08:06:17.524Z,1220.00
2022-11-16T08:07:17.575Z,1208.00
2022-11-16T08:08:17.552Z,1232.00
2022-11-16T08:09:17.525Z,1276.00
2022-11-16T08:10:17.988Z,1292.00
2022-11-16T08:11:17.498Z,1368.00
2022-11-16T08:12:17.486Z,1428.00
2022-11-16T08:13:17.462Z,1500.00
2022-11-16T08:14:17.457Z,1592.00
2022-11-16T08:15:17.459Z,1708.00
2022-11-16T08:16:18.219Z,1724.00
2022-11-16T08:17:17.454Z,1672.00
2022-11-16T08:18:17.443Z,1692.00
2022-11-16T08:19:17.446Z,1816.00
2022-11-16T08:20:17.414Z,1972.00
2022-11-16T08:21:17.413Z,2136.00
2022-11-16T08:22:17.408Z,2232.00
2022-11-16T08:23:17.428Z,2348.00
2022-11-16T08:24:17.577Z,2336.00
2022-11-16T08:25:17.394Z,2272.00
2022-11-16T08:26:17.369Z,2160.00
2022-11-16T08:27:17.390Z,1988.00
2022-11-16T08:28:18.048Z,1748.00
2022-11-16T08:29:17.357Z,1584.00
2022-11-16T08:30:17.355Z,1496.00
2022-11-16T08:31:17.336Z,1412.00
2022-11-16T08:32:17.344Z,1344.00
2022-11-16T08:33:17.556Z,1356.00
2022-11-16T08:34:17.313Z,1400.00
2022-11-16T08:35:17.324Z,1352.00
2022-11-16T08:36:17.389Z,1252.00
2022-11-16T08:37:17.297Z,1172.00
2022-11-16T08:38:17.312Z,1120.00
2022-11-16T08:39:17.737Z,1100.00
2022-11-16T08:40:17.295Z,1148.00
2022-11-16T08:41:17.271Z,1236.00
2022-11-16T08:42:17.361Z,1528.00
2022-11-16T08:43:17.247Z,1904.00
2022-11-16T08:44:17.266Z,2020.00
2022-11-16T08:45:17.229Z,2004.00
2022-11-16T08:46:17.228Z,2188.00
2022-11-16T08:47:17.232Z,2404.00
2022-11-16T08:48:17.212Z,2588.00
2022-11-16T08:49:17.236Z,2588.00
2022-11-16T08:50:44.260Z,2668.00
2022-11-16T08:51:19.462Z,2692.00
2022-11-16T08:52:17.180Z,2676.00
2022-11-16T08:53:17.174Z,2608.00
2022-11-16T08:54:17.601Z,2596.00
2022-11-16T08:55:17.170Z,2492.00
2022-11-16T08:56:17.183Z,2540.00
2022-11-16T08:57:17.185Z,2600.00
2022-11-16T08:58:17.144Z,2604.00
2022-11-16T08:59:17.480Z,2644.00
2022-11-16T09:00:17.139Z,2532.00
2022-11-16T09:01:17.301Z,2556.00
2022-11-16T09:02:17.148Z,2632.00
2022-11-16T09:03:17.135Z,2520.00
2022-11-16T09:04:17.120Z,2376.00
2022-11-16T09:05:17.099Z,2256.00
2022-11-16T09:06:17.089Z,2244.00
2022-11-16T09:07:17.130Z,2396.00
2022-11-16T09:08:17.064Z,2640.00
2022-11-16T09:09:17.075Z,2992.00
2022-11-16T09:10:17.070Z,3068.00
2022-11-16T09:11:17.055Z,3116.00
2022-11-16T09:12:38.091Z,3176.00
2022-11-16T09:13:17.032Z,2896.00
2022-11-16T09:14:17.024Z,2632.00
2022-11-16T09:15:17.020Z,2572.00
2022-11-16T09:16:17.506Z,2416.00
2022-11-16T09:17:22.762Z,2200.00
2022-11-16T09:18:18.004Z,2180.00
2022-11-16T09:19:16.985Z,2352.00
2022-11-16T09:20:16.973Z,2416.00
2022-11-16T09:21:16.985Z,2320.00
2022-11-16T09:22:16.980Z,2400.00
2022-11-16T09:23:20.965Z,2456.00
2022-11-16T09:24:17.952Z,2664.00
2022-11-16T09:25:16.939Z,3080.00
2022-11-16T09:26:16.946Z,3620.00
2022-11-16T09:27:16.982Z,3756.00
2022-11-16T09:28:17.735Z,4872.00
2022-11-16T09:29:16.917Z,6184.00
2022-11-16T09:30:16.918Z,7508.00
2022-11-16T09:31:21.976Z,8972.00
2022-11-16T09:32:17.913Z,8848.00
2022-11-16T09:33:16.878Z,8908.00
2022-11-16T09:34:16.884Z,7508.00
2022-11-16T09:35:16.872Z,6348.00
2022-11-16T09:36:16.879Z,5552.00
2022-11-16T09:37:16.852Z,4612.00
2022-11-16T09:38:24.148Z,3808.00
2022-11-16T09:39:53.737Z,4028.00
2022-11-16T09:40:16.832Z,5120.00
2022-11-16T09:41:16.852Z,6436.00
2022-11-16T09:42:16.814Z,6424.00
2022-11-16T09:43:16.807Z,5520.00
2022-11-16T09:44:18.892Z,5648.00
2022-11-16T09:45:16.794Z,6224.00
2022-11-16T09:46:16.788Z,5500.00
2022-11-16T09:47:16.793Z,4840.00
2022-11-16T09:48:16.782Z,4372.00
2022-11-16T09:49:17.872Z,4028.00
2022-11-16T09:50:17.487Z,3988.00
2022-11-16T09:51:16.762Z,3768.00
2022-11-16T09:52:16.751Z,3140.00
2022-11-16T09:53:16.741Z,3468.00
2022-11-16T09:54:17.998Z,4268.00
2022-11-16T09:55:16.747Z,4808.00
2022-11-16T09:56:21.824Z,5092.00
2022-11-16T09:57:18.279Z,5520.00
2022-11-16T09:58:16.707Z,6000.00
2022-11-16T09:59:18.300Z,6664.00
2022-11-16T10:00:16.804Z,5768.00
2022-11-16T10:01:16.751Z,5440.00
2022-11-16T10:02:16.690Z,4332.00
2022-11-16T10:03:17.908Z,3876.00
2022-11-16T10:04:16.657Z,3516.00
2022-11-16T10:05:16.664Z,3920.00
2022-11-16T10:06:16.652Z,3912.00
2022-11-16T10:07:17.111Z,3388.00
2022-11-16T10:08:16.636Z,3032.00
2022-11-16T10:09:16.628Z,3036.00
2022-11-16T10:10:16.640Z,2716.00
2022-11-16T10:11:16.610Z,2068.00
2022-11-16T10:12:16.615Z,1740.00
2022-11-16T10:13:16.594Z,1592.00
2022-11-16T10:14:16.596Z,1628.00
2022-11-16T10:15:16.588Z,1712.00
2022-11-16T10:16:16.609Z,1652.00
2022-11-16T10:17:16.578Z,1692.00
2022-11-16T10:18:16.573Z,2232.00
2022-11-16T10:19:16.563Z,2836.00
2022-11-16T10:20:16.550Z,3464.00
2022-11-16T10:21:17.280Z,3544.00
2022-11-16T10:22:16.540Z,4528.00
2022-11-16T10:23:16.531Z,4092.00
2022-11-16T10:24:16.525Z,3476.00
2022-11-16T10:25:16.509Z,2936.00
2022-11-16T10:26:16.513Z,2616.00
2022-11-16T10:27:21.709Z,2280.00
2022-11-16T10:28:17.559Z,2096.00
2022-11-16T10:29:16.488Z,2268.00
2022-11-16T10:30:16.478Z,2204.00
2022-11-16T10:31:16.883Z,2068.00
2022-11-16T10:32:16.908Z,2048.00
2022-11-16T10:33:16.451Z,2000.00
2022-11-16T10:34:16.458Z,1820.00
2022-11-16T10:35:17.675Z,2204.00
2022-11-16T10:36:16.435Z,3400.00
2022-11-16T10:37:16.439Z,4620.00
2022-11-16T10:38:16.417Z,6952.00
2022-11-16T10:39:18.499Z,8624.00
2022-11-16T10:40:16.413Z,10824.00
2022-11-16T10:41:16.410Z,11260.00
2022-11-16T10:42:16.416Z,11076.00
2022-11-16T10:43:16.389Z,10800.00
2022-11-16T10:44:16.412Z,9776.00
2022-11-16T10:45:16.376Z,10612.00
2022-11-16T10:46:16.373Z,10748.00
2022-11-16T10:47:16.361Z,9928.00
2022-11-16T10:48:16.455Z,8920.00
2022-11-16T10:49:16.354Z,6972.00
2022-11-16T10:50:16.343Z,7036.00
2022-11-16T10:51:16.335Z,7556.00
2022-11-16T10:52:16.646Z,7088.00
2022-11-16T10:53:16.326Z,5552.00
2022-11-16T10:54:16.328Z,3928.00
2022-11-16T10:55:16.313Z,3180.00
2022-11-16T10:56:16.298Z,3192.00
2022-11-16T10:57:16.300Z,3320.00
2022-11-16T10:58:16.282Z,3096.00
2022-11-16T10:59:16.853Z,3052.00
2022-11-16T11:00:22.041Z,3020.00
2022-11-16T11:01:17.325Z,2504.00
2022-11-16T11:02:16.263Z,2416.00
2022-11-16T11:03:16.258Z,2808.00
2022-11-16T11:04:16.375Z,3612.00
2022-11-16T11:05:16.248Z,4752.00
2022-11-16T11:06:16.219Z,6964.00
2022-11-16T11:07:16.241Z,8352.00
2022-11-16T11:08:16.296Z,9440.00
2022-11-16T11:09:16.196Z,11840.00
2022-11-16T11:10:16.214Z,11672.00
2022-11-16T11:11:16.189Z,9784.00
2022-11-16T11:12:16.205Z,9592.00
2022-11-16T11:13:16.191Z,11772.00
2022-11-16T11:14:16.169Z,13756.00
2022-11-16T11:15:19.056Z,12124.00
2022-11-16T11:16:17.157Z,10236.00
2022-11-16T11:17:16.143Z,9916.00
2022-11-16T11:18:16.135Z,8964.00
2022-11-16T11:19:16.136Z,7512.00
2022-11-16T11:20:16.193Z,5948.00
2022-11-16T11:21:16.163Z,4516.00
2022-11-16T11:22:16.123Z,3140.00
2022-11-16T11:23:16.104Z,2576.00
2022-11-16T11:24:42.934Z,2972.00
2022-11-16T11:25:17.103Z,3580.00
2022-11-16T11:26:16.071Z,3968.00
2022-11-16T11:27:16.065Z,4568.00
2022-11-16T11:28:16.067Z,4640.00
2022-11-16T11:29:16.059Z,4460.00
2022-11-16T11:30:16.116Z,4252.00
2022-11-16T11:31:16.048Z,4340.00
2022-11-16T11:32:24.128Z,4724.00
2022-11-16T11:33:17.023Z,5888.00
2022-11-16T11:34:16.034Z,7324.00
2022-11-16T11:35:16.015Z,9496.00
2022-11-16T11:36:16.034Z,10444.00
2022-11-16T11:37:16.008Z,13676.00
2022-11-16T11:38:16.005Z,16032.00
2022-11-16T11:39:16.070Z,13312.00
2022-11-16T11:40:16.123Z,15488.00
2022-11-16T11:41:15.972Z,17696.00
2022-11-16T11:42:16.644Z,17184.00
2022-11-16T11:43:18.876Z,18336.00
2022-11-16T11:44:15.951Z,20992.00
2022-11-16T11:45:15.943Z,22720.00
2022-11-16T11:46:15.932Z,23104.00
2022-11-16T11:47:55.448Z,22784.00
2022-11-16T11:48:16.920Z,22304.00
2022-11-16T11:49:16.049Z,22144.00
2022-11-16T11:50:15.904Z,22432.00
2022-11-16T11:51:15.906Z,22528.00
2022-11-16T11:52:16.003Z,22560.00
2022-11-16T11:53:15.878Z,22944.00
2022-11-16T11:54:16.089Z,22528.00
2022-11-16T11:55:15.876Z,22752.00
2022-11-16T11:56:15.875Z,23296.00
2022-11-16T11:57:15.858Z,24384.00
2022-11-16T11:58:16.520Z,25888.00
2022-11-16T11:59:15.852Z,25952.00
2022-11-16T12:00:15.845Z,25984.00
2022-11-16T12:01:19.452Z,22976.00
2022-11-16T12:02:16.823Z,22176.00
2022-11-16T12:03:15.858Z,16768.00
2022-11-16T12:04:15.799Z,26688.00
2022-11-16T12:05:15.820Z,25504.00
2022-11-16T12:06:15.801Z,11968.00
2022-11-16T12:07:15.789Z,10684.00
2022-11-16T12:08:15.902Z,10416.00
2022-11-16T12:09:15.781Z,10552.00
2022-11-16T12:10:15.762Z,9952.00
2022-11-16T12:11:16.532Z,9752.00
2022-11-16T12:12:15.740Z,8648.00
2022-11-16T12:13:16.604Z,7504.00
2022-11-16T12:14:15.767Z,7240.00
2022-11-16T12:15:15.731Z,7440.00
2022-11-16T12:16:15.811Z,8368.00
2022-11-16T12:17:15.727Z,12980.00
2022-11-16T12:18:16.170Z,10544.00
2022-11-16T12:19:15.692Z,9472.00
2022-11-16T12:20:15.713Z,7348.00
2022-11-16T12:21:15.677Z,7752.00
2022-11-16T12:22:15.690Z,7884.00
2022-11-16T12:23:16.530Z,7884.00
2022-11-16T12:24:16.771Z,9608.00
2022-11-16T12:25:15.669Z,12176.00
2022-11-16T12:26:15.641Z,13720.00
2022-11-16T12:27:15.629Z,18944.00
2022-11-16T12:28:15.642Z,9640.00
2022-11-16T12:29:15.619Z,8868.00
2022-11-16T12:30:15.642Z,7952.00
2022-11-16T12:31:15.672Z,10208.00
2022-11-16T12:32:15.598Z,14168.00
2022-11-16T12:33:37.229Z,8052.00
2022-11-16T12:34:15.584Z,13584.00
2022-11-16T12:35:15.584Z,12568.00
2022-11-16T12:36:15.570Z,9020.00
2022-11-16T12:37:15.560Z,13704.00
2022-11-16T12:38:15.555Z,14036.00
2022-11-16T12:39:15.553Z,13856.00
2022-11-16T12:40:15.653Z,13684.00
2022-11-16T12:41:15.538Z,13332.00
2022-11-16T12:42:15.529Z,13176.00